zondag 31 mei 2020 | Home | Bestenlijsten | Bestenlijsten NL | Calculators | Nieuws | Records | Uitslagen | VZA Ranglijsten | Weer |
 
Recent nieuws meer nieuws
28-05: Is snelheid een relatief begrip? Maar dan op herhaling
19-05: Snelheid een relatief begrip?
06-05: Mag huidig niveau hardlopen zomaar vergeleken worden met dat van de jaren 70?
28-04: Ook na 1 juni Run your own race
24-04: Zeeuws record 15 km van John Vermeule meest kansrijk om ooit te worden verbroken
21-04: Kunnen we na 1 juni stoppen met Run your own race?
 
Zoek tenminste met 3 tekens van wedstrijd, datum, plaats of atleet

Kreekloop

Terneuzen, woensdag 31 augustus 2016 - Organisatie: Scheldesport
9.6 km
PltsNaam
Tijdkm/umin/kmm/secgap
1  Mark VerhageZaamslag35.32minMse   16.210  3:424.50-
2  Erik GoossenTerneuzen37.06minM45   15.526  3:524.31+1:34
3  Frank van den BrandenSint Jansteen39.31minM55   14.576  4:074.05+3:59
4  Ruben BoutensMiddelburg40.43minMse   14.147  4:143.93+5:11
5  Dimitri MevensenWachtebeke42.11minMse   13.655  4:243.79+6:39
6  Wim de FeijterTerneuzen42.12minMse   13.649  4:243.79+6:40
7  Herman KuijerTerneuzen42.22minM55   13.596  4:253.78+6:50
8  Leo BrackeAxel42.34minMse   13.532  4:263.76+7:02
9  Niek WielandAxel43.22minM40   13.282  4:313.69+7:50
10  Frank BoerebachHoek43.42minMse   13.181  4:333.66+8:10
11  Paul HaertjensBoekhoute43.52minMse   13.131  4:343.65+8:20
12  Jos van GrembergheStekene44.48minMse   12.857  4:403.57+9:16
13  Sjakkie van den BroekeHoek45.18minM45   12.715  4:433.53+9:46
14  Berry KnibbelerWestdorpe46.25minM55   12.409  4:503.45+10:53
15  Walther MurreZaamslag46.33minM45   12.374  4:513.44+11:01
16  Theo RoelsKloosterzande46.40minM55   12.343  4:523.43+11:08
17  Jochem de DijckerAxel46.53minMse   12.286  4:533.41+11:21
18  Evert KuijkTerneuzen47.46minM45   12.059  4:593.35+12:14
19  Jos CelieAxel47.53minMse   12.029  4:593.34+12:21
20  Yannick VastenhoutTerneuzen48.10minMse   11.958  5:013.32+12:38
21  Cor de JongeTerneuzen49.01minM55   11.751  5:063.26+13:29
22  Ebe BlaauwTerneuzen49.30minM60   11.636  5:093.23+13:58
23  Inge de BooijGraauw49.33minVse   11.625  5:103.23+14:01
24  Frans VerwilligenHulst49.34minMse   11.621  5:103.23+14:02
25  Rene HamelinkZaamslag49.49minMse   11.562  5:113.21+14:17
26  Harold de MaatTerneuzen49.56minM45   11.535  5:123.20+14:24
27  Josa van de VlietTerneuzen50.01minVse   11.516  5:133.20+14:29
28  Conrad de RidderVlissingen50.30minMse   11.406  5:163.17+14:58
29  Wim LockefeirNieuw-Namen50.32minMse   11.398  5:163.17+15:00
30  Patrick CeuppensHalle50.34minMse   11.391  5:163.16+15:02
31  Marion GoossenTerneuzen50.39minV40   11.372  5:173.16+15:07
32  Cor LeunisTerneuzen51.13minMse   11.246  5:203.12+15:41
33  Jack FolkersmaTerneuzen53.52minMse   10.693  5:372.97+18:20
34  Emanuela BrackeAxel54.25minVse   10.585  5:402.94+18:53
35  Dirk HoutepenTerneuzen54.41minMse   10.533  5:422.93+19:09
36  Leo de FeijterAxel55.03minMse   10.463  5:442.91+19:31
37  Rudy van de VeldeWachtebeke56.41minMse   10.162  5:542.82+21:09
38  Philip De VroeSleidinge (B)57.28minMse   10.023  5:592.78+21:56
39  Marieke van HeckeTerneuzen57.53minVse   9.951  6:022.76+22:21
40  Gino DhanisSint Jansteen59.19minM50   9.711  6:112.70+23:47
41  Leo HoelvinqKoewacht59.19minMse   9.711  6:112.70+23:47
42  Phyllis FranceschiTerneuzen59.48minVse   9.632  6:142.68+24:16
43  Jacky DoomsTerneuzen59.50minMse   9.627  6:142.67+24:18
44  Esther FaasKoewacht1.00.29minVse   9.523  6:182.65+24:57
45  Anneke de WolffTerneuzen1.06.45minVse   8.629  6:572.40+31:13
46  Nilet de WolffTerneuzen1.06.46minMse   8.627  6:572.40+31:14
47  Marjan SuijTerneuzen1.07.20minVse   8.554  7:012.38+31:48
Mannen: 38 (80.85%) => M40=1 - M45=5 - M50=1 - M55=5 - M60=1 - Mse=25
Vrouwen: 9 (19.15%) => V40=1 - Vse=8

Overzicht Top3, winnares en aantal deelnemers van aanwezige edities

JaarWinnaarTijd2eTijd 3eTijdWinnaresTijd#

9.6 km

2019Mark Verhage33:07Liam de Mey34:01Sander van Doorn36:10Natasja de Booij44:0041
2018Mark Verhage33:43Erwin van den Broeke36:30Jeroen van den Broeke37:15Melissa ten Kate44:5347
2017Mark Verhage33:22Erwin van den Broeke35:20Sander van Doorn35:54Astrid Verhage45:4769
2016Mark Verhage35:32Erik Goossen37:06Frank van den Branden39:31Inge de Booij49:3347

9.2 km

2015Mark Verhage33:22Erwin van den Broeke33:52Pieter Pladdet34:10Nadia Bleyenberg45:4141
2014Mark Verhage32:16Erwin van den Broeke32:32Erik Goossen32:34Myrthe Faro41:3647
5.2 km
PltsNaam
Tijdkm/umin/kmm/secgap
1  Sander d'HontKuitaart17.04minMse   18.281  3:175.08-
2  Erwin van de BroekeAxel17.37minMse   17.711  3:234.92+0:33
3  Ben van VlietTerneuzen20.37minMse   15.133  3:584.20+3:33
4  Douwe WortmanAxel21.08minMse   14.763  4:044.10+4:04
5  Leon van BavinchovenTerneuzen21.19minMse   14.636  4:064.07+4:15
6  Ralph SchaaljeHulst21.39minMse   14.411  4:104.00+4:35
7  Stefan van DammeTerneuzen23.31minMse   13.267  4:313.69+6:27
8  Bennie BouterseTerneuzen24.16minMse   12.857  4:403.57+7:12
9  Willem van de HeydenKieldrecht24.28minMse   12.752  4:423.54+7:24
10  Freer van RoeyenAxel24.55minMse   12.522  4:483.48+7:51
11  Stefanie van de VisserHoek24.56minV35   12.513  4:483.48+7:52
12  Amber WortmanAxel25.06minVse   12.430  4:503.45+8:02
13  Corine de JongeTerneuzen25.06minVse   12.430  4:503.45+8:02
14  Jan-Willem SlabbekoornHoek26.09minM50   11.931  5:023.31+9:05
15  Ron van VlierbergheHoek26.33minM40   11.751  5:063.26+9:29
16  Gre HendriksTerneuzen26.49minVse   11.635  5:093.23+9:45
17  Jacqueline d'HontKuitaart27.32minVse   11.332  5:183.15+10:28
18  Janneke BoutensMiddelburg27.36minVse   11.304  5:183.14+10:32
19  Aureel LippensWaarschot27.49minMse   11.216  5:213.12+10:45
20  William VerdonckBeveren-Waas28.24minMse   10.986  5:283.05+11:20
21  Danielle van der KooiTerneuzen28.46minVse   10.846  5:323.01+11:42
22  Monique AdriaanseTerneuzen28.48minV45   10.833  5:323.01+11:44
23  Edith LormansTerneuzen28.50minVse   10.821  5:333.01+11:46
24  Johan UijtdehaagTerneuzen29.07minMse   10.716  5:362.98+12:03
25  Mirelle van den BerghTerneuzen29.08minVse   10.709  5:362.97+12:04
26  Arsene Van LaekenAssenede29.17minMse   10.655  5:382.96+12:13
27  Marga KuijpersTerneuzzen30.31minVse   10.224  5:522.84+13:27
28  Jurgen LippensWaarschoot30.36minMse   10.196  5:532.83+13:32
29  Greta de VylderSint-Gillis-Waas35.46minVse   8.723  6:532.42+18:42
30  Astrid KramerHoek37.15minVse   8.376  7:102.33+20:11
31  Maritha DielemanSpui37.16minVse   8.372  7:102.33+20:12
Mannen: 17 (54.84%) => M40=1 - M50=1 - Mse=15
Vrouwen: 14 (45.16%) => V35=1 - V45=1 - Vse=12

Snelheid en tempo zijn berekend op de vermelde afstand. Bij een onjuiste afstand wijken deze uiteraard af!

Fouten melden via info@atletiekzeeland.nl Categorie fout? Mail dan geboortedatum. (geldt alleen voor Zeeuwen)

De server had 0.192 seconden nodig om deze lijst met 78 prestaties samen te stellen.

Terug naar boven


 
Atletiek Zeeland © 2020